Time;durP1;ratioP1;P1;durP2;ratioP2;P2;SDS_P1;SDS_P2;PMS_P1;PMS_P2;Temp;Humidity;BMP_temperature;BMP_pressure;BME280_temperature;BME280_humidity;BME280_pressure;Samples;Min_cycle;Max_cycle;Signal;HPM_P1;HPM_P2
2021/05/25 00:08:56;;;;;;;1.25;0.37;;;10.40;99.90;;;;;;6768442;88;20219;-76
2021/05/25 00:18:57;;;;;;;0.90;0.37;;;10.30;99.90;;;;;;6763951;88;20256;-77
2021/05/25 00:28:57;;;;;;;1.08;0.30;;;10.30;99.90;;;;;;6767251;88;20168;-77
2021/05/25 00:38:58;;;;;;;0.60;0.20;;;10.00;99.90;;;;;;6763460;88;20213;-77
2021/05/25 00:48:58;;;;;;;1.52;0.20;;;9.90;99.90;;;;;;6754679;88;20216;-77
2021/05/25 00:59:00;;;;;;;0.47;0.20;;;9.70;99.90;;;;;;6751533;88;20711;-77
2021/05/25 01:09:01;;;;;;;0.60;0.15;;;9.60;99.90;;;;;;6770229;87;20217;-77
2021/05/25 01:19:02;;;;;;;0.75;0.30;;;9.60;99.90;;;;;;6769511;87;20711;-77
2021/05/25 01:39:06;;;;;;;1.10;0.30;;;9.40;99.90;;;;;;6758499;88;20240;-77
2021/05/25 01:49:06;;;;;;;0.70;0.30;;;9.10;99.90;;;;;;6753531;88;20213;-80
2021/05/25 01:59:07;;;;;;;0.20;0.10;;;9.00;99.90;;;;;;6752064;88;21183;-78
2021/05/25 02:09:07;;;;;;;0.62;0.28;;;9.00;99.90;;;;;;6753996;88;20806;-76
2021/05/25 02:19:08;;;;;;;1.93;0.23;;;9.00;99.90;;;;;;6747043;88;20185;-77
2021/05/25 02:29:09;;;;;;;1.00;0.25;;;8.90;99.90;;;;;;6750058;88;20522;-76
2021/05/25 02:39:09;;;;;;;1.85;0.40;;;8.70;99.90;;;;;;6755028;88;20712;-80
2021/05/25 02:49:10;;;;;;;1.60;0.40;;;8.40;99.90;;;;;;6741862;88;20184;-78
2021/05/25 02:59:11;;;;;;;0.80;0.30;;;8.50;99.90;;;;;;6748845;88;20185;-79
2021/05/25 03:09:12;;;;;;;2.37;0.57;;;8.60;99.90;;;;;;6746827;88;20258;-77
2021/05/25 03:19:16;;;;;;;3.12;0.30;;;8.70;99.90;;;;;;6745588;88;20240;-76
2021/05/25 03:29:17;;;;;;;2.25;0.30;;;8.70;99.90;;;;;;6747248;88;20185;-76
2021/05/25 03:39:17;;;;;;;1.05;0.40;;;8.80;99.90;;;;;;6744979;88;20197;-77
2021/05/25 03:49:18;;;;;;;1.80;0.40;;;8.90;99.90;;;;;;6752770;88;20181;-76
2021/05/25 03:59:19;;;;;;;1.37;0.37;;;8.90;99.90;;;;;;6731339;88;20653;-77
2021/05/25 04:09:19;;;;;;;1.62;0.40;;;9.00;99.90;;;;;;6749753;88;20202;-77
2021/05/25 04:19:20;;;;;;;1.40;0.40;;;9.00;99.90;;;;;;6753528;88;20605;-77
2021/05/25 04:29:20;;;;;;;1.52;0.32;;;9.00;99.90;;;;;;6752873;88;20218;-76
2021/05/25 04:39:21;;;;;;;1.87;0.37;;;9.10;99.90;;;;;;6715842;88;20227;-76
2021/05/25 04:49:21;;;;;;;1.50;0.45;;;9.40;99.90;;;;;;6747396;88;20188;-76
2021/05/25 04:59:22;;;;;;;0.82;0.30;;;9.50;99.90;;;;;;6752340;88;20223;-76
2021/05/25 05:09:23;;;;;;;0.70;0.20;;;9.70;99.90;;;;;;6750365;88;20280;-78
2021/05/25 05:19:23;;;;;;;0.90;0.40;;;10.00;99.90;;;;;;6752078;88;20227;-79
2021/05/25 05:29:24;;;;;;;1.08;0.37;;;9.90;99.90;;;;;;6755708;88;20958;-79
2021/05/25 05:39:25;;;;;;;0.70;0.40;;;9.90;99.90;;;;;;6751528;88;20820;-77
2021/05/25 05:49:25;;;;;;;1.12;0.30;;;10.00;99.90;;;;;;6750903;88;20384;-77
2021/05/25 05:59:26;;;;;;;1.55;0.30;;;10.10;99.90;;;;;;6751875;88;20205;-77
2021/05/25 06:09:26;;;;;;;1.10;0.30;;;9.60;99.90;;;;;;6757970;88;20186;-79
2021/05/25 06:19:27;;;;;;;0.50;0.20;;;9.10;99.90;;;;;;6764161;88;20724;-81
2021/05/25 06:29:27;;;;;;;0.70;0.30;;;9.10;99.90;;;;;;6762999;88;20210;-80
2021/05/25 06:39:28;;;;;;;2.62;0.47;;;9.20;99.90;;;;;;6759782;88;20185;-77
2021/05/25 06:49:28;;;;;;;1.45;0.55;;;9.30;99.90;;;;;;6749920;88;20189;-78
2021/05/25 06:59:29;;;;;;;3.35;0.40;;;9.50;99.90;;;;;;6752395;88;20215;-78
2021/05/25 07:09:29;;;;;;;1.00;0.30;;;10.00;99.90;;;;;;6761519;87;20213;-76
2021/05/25 07:19:30;;;;;;;1.23;0.30;;;10.40;99.90;;;;;;6752816;88;21004;-77
2021/05/25 07:29:31;;;;;;;0.45;0.20;;;10.90;99.90;;;;;;6754798;88;20831;-79
2021/05/25 07:39:32;;;;;;;1.15;0.37;;;10.60;99.90;;;;;;6758176;88;20613;-78
2021/05/25 07:49:34;;;;;;;0.93;0.40;;;11.20;99.90;;;;;;6760270;88;20200;-77
2021/05/25 07:59:36;;;;;;;2.75;0.40;;;11.10;99.90;;;;;;6754049;88;20298;-77
2021/05/25 08:09:36;;;;;;;1.00;0.30;;;10.80;99.90;;;;;;6758488;88;20193;-78
2021/05/25 08:19:38;;;;;;;0.65;0.30;;;10.10;99.90;;;;;;6762631;88;20880;-79
2021/05/25 08:29:39;;;;;;;1.02;0.40;;;8.90;99.90;;;;;;6754354;88;20291;-79
2021/05/25 08:39:39;;;;;;;0.90;0.40;;;8.60;99.90;;;;;;6750766;88;20185;-77
2021/05/25 08:49:41;;;;;;;1.37;0.50;;;8.70;99.90;;;;;;6748684;88;20169;-76
2021/05/25 08:59:42;;;;;;;1.00;0.40;;;8.70;99.90;;;;;;6749327;88;20233;-79
2021/05/25 09:09:53;;;;;;;1.55;0.30;;;8.70;99.90;;;;;;6752803;88;20189;-76
2021/05/25 09:19:56;;;;;;;1.10;0.40;;;8.90;99.90;;;;;;6749683;88;20185;-77
2021/05/25 09:30:15;;;;;;;0.62;0.30;;;8.70;99.90;;;;;;6743979;88;20359;-78
2021/05/25 09:40:17;;;;;;;0.68;0.30;;;8.80;99.90;;;;;;6753014;88;20256;-78
2021/05/25 09:50:20;;;;;;;0.95;0.40;;;9.00;99.90;;;;;;6743272;88;20209;-78
2021/05/25 10:00:31;;;;;;;0.60;0.30;;;11.00;99.90;;;;;;6744968;88;20181;-76
2021/05/25 10:10:33;;;;;;;2.30;0.60;;;11.50;99.90;;;;;;6755116;88;20299;-79
2021/05/25 10:20:34;;;;;;;0.98;0.40;;;11.70;99.90;;;;;;6749775;88;20200;-78
2021/05/25 10:30:49;;;;;;;2.37;0.80;;;12.60;99.90;;;;;;6730645;88;20230;-80
2021/05/25 10:40:55;;;;;;;1.80;0.80;;;13.90;99.90;;;;;;6727235;88;20166;-77
2021/05/25 10:50:55;;;;;;;;;;;12.80;99.90;;;;;;6740344;88;20278;-77
2021/05/25 11:00:57;;;;;;;2.35;0.60;;;12.00;99.90;;;;;;6744494;88;20371;-76
2021/05/25 11:11:05;;;;;;;1.20;0.60;;;11.90;99.90;;;;;;6734921;88;20219;-79
2021/05/25 11:31:09;;;;;;;4.28;1.60;;;13.00;99.90;;;;;;6735657;88;20324;-78
2021/05/25 11:41:17;;;;;;;4.47;1.00;;;12.20;99.90;;;;;;6730040;88;20362;-78
2021/05/25 11:51:17;;;;;;;3.55;1.08;;;12.60;99.90;;;;;;6728092;88;20263;-79
2021/05/25 12:01:18;;;;;;;3.05;1.30;;;14.80;99.90;;;;;;6729635;88;20301;-78
2021/05/25 12:11:35;;;;;;;2.87;1.20;;;15.80;99.90;;;;;;6727601;88;20910;-79
2021/05/25 12:21:36;;;;;;;5.32;1.20;;;14.10;99.90;;;;;;6719156;88;20393;-78
2021/05/25 12:31:37;;;;;;;3.45;0.85;;;13.50;99.90;;;;;;6731288;88;20187;-78
2021/05/25 12:41:49;;;;;;;2.60;0.80;;;12.80;99.90;;;;;;6729904;88;20340;-78
2021/05/25 12:51:49;;;;;;;0.82;0.37;;;12.10;99.90;;;;;;6734358;88;20268;-79
2021/05/25 13:01:50;;;;;;;1.48;0.50;;;11.90;99.90;;;;;;6732130;88;20925;-81
2021/05/25 13:11:57;;;;;;;2.00;0.57;;;13.20;99.90;;;;;;6737182;88;20203;-80
2021/05/25 13:21:59;;;;;;;3.12;0.60;;;13.90;99.90;;;;;;6737408;88;20230;-80
2021/05/25 13:32:00;;;;;;;5.28;0.90;;;13.20;99.90;;;;;;6737459;88;20967;-79
2021/05/25 13:42:00;;;;;;;2.55;0.70;;;13.60;99.90;;;;;;6736417;88;20291;-82
2021/05/25 13:52:01;;;;;;;2.22;0.60;;;13.50;99.90;;;;;;6741757;88;20177;-81
2021/05/25 14:02:02;;;;;;;2.30;0.60;;;12.80;99.90;;;;;;6730823;88;20227;-81
2021/05/25 14:12:03;;;;;;;1.87;0.80;;;11.80;99.90;;;;;;6730791;88;20205;-80
2021/05/25 14:22:03;;;;;;;2.90;0.70;;;12.20;99.90;;;;;;6728387;88;20185;-79
2021/05/25 14:32:04;;;;;;;4.47;1.33;;;13.10;99.90;;;;;;6730012;88;20216;-80
2021/05/25 14:42:05;;;;;;;5.75;3.05;;;13.10;99.90;;;;;;6736675;88;20650;-80
2021/05/25 14:52:06;;;;;;;5.20;1.30;;;13.30;99.90;;;;;;6731651;88;20205;-81
2021/05/25 15:02:13;;;;;;;5.77;1.70;;;13.10;99.90;;;;;;6741747;88;20356;-80
2021/05/25 15:12:14;;;;;;;2.95;1.42;;;12.80;99.90;;;;;;6740968;88;21081;-78
2021/05/25 15:22:15;;;;;;;8.82;1.80;;;12.60;99.90;;;;;;6729979;88;20226;-78
2021/05/25 15:32:15;;;;;;;6.15;1.70;;;12.40;99.90;;;;;;6729932;88;20204;-78
2021/05/25 15:42:16;;;;;;;3.80;1.23;;;11.70;99.90;;;;;;6733575;88;20294;-78
2021/05/25 15:52:17;;;;;;;4.22;0.80;;;11.60;99.90;;;;;;6729947;88;20235;-78
2021/05/25 16:02:17;;;;;;;4.62;0.95;;;11.40;99.90;;;;;;6734875;88;20197;-78
2021/05/25 16:12:18;;;;;;;3.42;0.70;;;11.00;99.90;;;;;;6740868;88;20264;-80
2021/05/25 16:22:18;;;;;;;3.40;0.75;;;10.60;99.90;;;;;;6742982;88;20200;-79
2021/05/25 16:32:19;;;;;;;1.97;0.80;;;10.50;99.90;;;;;;6743002;88;20254;-80
2021/05/25 16:42:19;;;;;;;5.18;0.80;;;10.30;99.90;;;;;;6730927;88;21120;-78
2021/05/25 16:52:20;;;;;;;3.67;1.00;;;10.40;99.90;;;;;;6716153;88;20718;-81
2021/05/25 17:12:39;;;;;;;3.67;1.20;;;10.80;99.90;;;;;;6738395;88;20197;-78
2021/05/25 17:22:40;;;;;;;4.15;1.10;;;11.00;99.90;;;;;;6744249;88;20200;-79
2021/05/25 17:32:40;;;;;;;2.00;1.00;;;11.10;99.90;;;;;;6745068;88;20237;-80
2021/05/25 17:42:41;;;;;;;4.22;1.15;;;11.10;99.90;;;;;;6728406;88;20161;-79
2021/05/25 17:52:42;;;;;;;3.80;1.00;;;10.90;99.90;;;;;;6741126;88;20646;-78
2021/05/25 18:02:42;;;;;;;3.08;0.70;;;10.60;99.90;;;;;;6735279;88;20173;-79
2021/05/25 18:12:44;;;;;;;4.93;0.80;;;10.10;99.90;;;;;;6711679;88;20235;-77
2021/05/25 18:22:46;;;;;;;1.10;0.60;;;9.70;99.90;;;;;;6707434;88;20211;-77
2021/05/25 18:32:50;;;;;;;1.27;0.57;;;9.60;99.90;;;;;;6710085;88;20186;-76
2021/05/25 18:42:51;;;;;;;3.80;1.00;;;9.40;99.90;;;;;;6717128;88;20236;-77
2021/05/25 18:52:53;;;;;;;5.62;1.10;;;9.20;99.90;;;;;;6717893;88;20194;-78
2021/05/25 19:02:54;;;;;;;3.35;0.73;;;9.10;99.90;;;;;;6720950;88;20227;-78
2021/05/25 19:12:56;;;;;;;4.68;1.17;;;9.10;99.90;;;;;;6717292;88;20259;-77
2021/05/25 19:32:57;;;;;;;3.17;0.75;;;9.20;99.90;;;;;;6729138;88;20173;-76
2021/05/25 19:42:58;;;;;;;2.85;1.05;;;9.20;99.90;;;;;;6727981;88;20190;-79
2021/05/25 19:52:58;;;;;;;5.25;1.50;;;9.30;99.90;;;;;;6746490;88;20210;-80
2021/05/25 20:13:04;;;;;;;3.85;1.10;;;9.40;99.90;;;;;;6737807;88;20470;-76
2021/05/25 20:23:04;;;;;;;3.42;1.15;;;9.40;99.90;;;;;;6724921;88;20237;-76
2021/05/25 20:33:06;;;;;;;4.53;1.33;;;9.40;99.90;;;;;;6720548;88;20351;-76
2021/05/25 20:43:07;;;;;;;4.20;1.25;;;9.40;99.90;;;;;;6718853;88;20215;-75
2021/05/25 20:53:08;;;;;;;8.43;1.50;;;9.30;99.90;;;;;;6719075;88;20255;-76
2021/05/25 21:03:09;;;;;;;4.37;1.75;;;9.30;99.90;;;;;;6718849;88;20593;-76
2021/05/25 21:13:10;;;;;;;3.70;1.70;;;9.30;99.90;;;;;;6716734;88;20484;-76
2021/05/25 21:23:11;;;;;;;6.20;1.58;;;9.30;99.90;;;;;;6714064;88;20275;-76
2021/05/25 21:33:13;;;;;;;7.97;1.48;;;9.30;99.90;;;;;;6719575;88;20211;-76
2021/05/25 21:43:14;;;;;;;6.50;1.42;;;9.30;99.90;;;;;;6721128;88;20225;-76
2021/05/25 21:53:15;;;;;;;5.20;1.33;;;9.30;99.90;;;;;;6716096;88;20199;-77
2021/05/25 22:03:15;;;;;;;4.90;1.55;;;9.20;99.90;;;;;;6714736;88;21032;-76
2021/05/25 22:13:16;;;;;;;4.37;1.33;;;9.30;99.90;;;;;;6727353;88;20275;-76
2021/05/25 22:23:17;;;;;;;4.45;1.50;;;9.30;99.90;;;;;;6726711;88;20198;-76
2021/05/25 22:33:17;;;;;;;5.80;1.48;;;9.20;99.90;;;;;;6722452;88;20212;-75
2021/05/25 22:43:18;;;;;;;4.45;1.48;;;9.10;99.90;;;;;;6721124;88;20198;-77
2021/05/25 22:53:19;;;;;;;6.37;1.75;;;9.10;99.90;;;;;;6724692;88;20189;-78
2021/05/25 23:03:19;;;;;;;4.18;1.30;;;9.10;99.90;;;;;;6721226;88;20211;-77
2021/05/25 23:13:20;;;;;;;7.72;1.60;;;9.10;99.90;;;;;;6719814;88;20205;-77
2021/05/25 23:23:20;;;;;;;4.57;1.65;;;9.20;99.90;;;;;;6718457;88;20199;-77
2021/05/25 23:33:21;;;;;;;6.72;1.30;;;9.20;99.90;;;;;;6722344;88;20194;-78
2021/05/25 23:43:22;;;;;;;6.87;1.60;;;9.10;99.90;;;;;;6722264;88;20359;-78
2021/05/25 23:53:22;;;;;;;4.53;1.40;;;9.10;99.90;;;;;;6712060;88;20843;-77
